Time;durP1;ratioP1;P1;durP2;ratioP2;P2;SDS_P1;SDS_P2;PMS_P1;PMS_P2;Temp;Humidity;BMP_temperature;BMP_pressure;BME280_temperature;BME280_humidity;BME280_pressure;Samples;Min_cycle;Max_cycle;Signal;HPM_P1;HPM_P2
2023/01/24 00:02:20;;;;;;;4.77;4.47;;;;;;;;;;6264010;28;20313;-82
2023/01/24 00:05:27;;;;;;;4.70;4.43;;;;;;;;;;6262376;28;20341;-83
2023/01/24 00:08:32;;;;;;;4.30;4.10;;;;;;;;;;6260089;28;20310;-83
2023/01/24 00:11:37;;;;;;;5.33;4.30;;;;;;;;;;6261056;28;20299;-81
2023/01/24 00:14:42;;;;;;;4.70;4.40;;;;;;;;;;6242829;28;20350;-83
2023/01/24 00:17:48;;;;;;;4.30;4.10;;;;;;;;;;6260386;28;20298;-81
2023/01/24 00:21:02;;;;;;;4.90;4.60;;;;;;;;;;6243501;28;20306;-82
2023/01/24 00:24:07;;;;;;;4.17;3.97;;;;;;;;;;6260559;28;20303;-82
2023/01/24 00:27:13;;;;;;;4.27;4.03;;;;;;;;;;6260121;28;20295;-82
2023/01/24 00:30:18;;;;;;;4.80;4.40;;;;;;;;;;6259727;28;20301;-82
2023/01/24 00:33:24;;;;;;;5.30;4.70;;;;;;;;;;6242449;28;20293;-81
2023/01/24 00:36:31;;;;;;;5.37;4.87;;;;;;;;;;6259594;28;20615;-81
2023/01/24 00:39:37;;;;;;;4.70;4.30;;;;;;;;;;6259785;28;20301;-82
2023/01/24 00:42:42;;;;;;;4.80;4.43;;;;;;;;;;6260017;28;20298;-81
2023/01/24 00:45:48;;;;;;;5.40;4.90;;;;;;;;;;6259670;28;20327;-82
2023/01/24 00:48:53;;;;;;;4.97;4.67;;;;;;;;;;6259632;28;20294;-82
2023/01/24 00:52:00;;;;;;;5.67;5.17;;;;;;;;;;6260324;28;20321;-83
2023/01/24 00:55:05;;;;;;;5.10;4.70;;;;;;;;;;6259518;28;20583;-83
2023/01/24 00:58:11;;;;;;;5.17;4.77;;;;;;;;;;6259300;28;20289;-81
2023/01/24 01:01:17;;;;;;;4.97;4.57;;;;;;;;;;6260485;28;20297;-83
2023/01/24 01:04:22;;;;;;;5.13;4.73;;;;;;;;;;6258728;28;20294;-82
2023/01/24 01:07:29;;;;;;;4.70;4.27;;;;;;;;;;6242471;28;20294;-82
2023/01/24 01:10:34;;;;;;;4.60;4.30;;;;;;;;;;6241322;28;20290;-82
2023/01/24 01:13:39;;;;;;;4.77;4.37;;;;;;;;;;6245176;28;20593;-82
2023/01/24 01:16:45;;;;;;;5.00;4.60;;;;;;;;;;6247252;28;20289;-82
2023/01/24 01:19:52;;;;;;;5.43;5.03;;;;;;;;;;6263324;28;20574;-82
2023/01/24 01:22:59;;;;;;;5.47;4.97;;;;;;;;;;6263226;28;20274;-83
2023/01/24 01:26:06;;;;;;;4.40;4.20;;;;;;;;;;6264595;28;20279;-81
2023/01/24 01:29:12;;;;;;;5.10;4.70;;;;;;;;;;6263513;28;20583;-81
2023/01/24 01:32:17;;;;;;;4.53;4.23;;;;;;;;;;6263859;28;20447;-82
2023/01/24 01:35:22;;;;;;;5.20;4.80;;;;;;;;;;6263767;28;20294;-82
2023/01/24 01:38:29;;;;;;;4.63;4.33;;;;;;;;;;6245645;28;20298;-82
2023/01/24 01:41:35;;;;;;;4.80;4.50;;;;;;;;;;6263780;28;20299;-82
2023/01/24 01:44:43;;;;;;;4.77;4.47;;;;;;;;;;6245382;28;20465;-82
2023/01/24 01:47:48;;;;;;;5.03;4.73;;;;;;;;;;6262028;28;20587;-82
2023/01/24 01:50:59;;;;;;;5.70;4.90;;;;;;;;;;6263461;28;20297;-82
2023/01/24 01:54:07;;;;;;;5.47;5.07;;;;;;;;;;6263004;28;20307;-83
2023/01/24 01:57:15;;;;;;;5.50;5.20;;;;;;;;;;6263242;28;20301;-82
2023/01/24 02:00:23;;;;;;;5.30;4.90;;;;;;;;;;6262036;28;20304;-82
2023/01/24 02:03:39;;;;;;;5.80;4.77;;;;;;;;;;6244993;28;20298;-82
2023/01/24 02:06:54;;;;;;;4.90;4.60;;;;;;;;;;6275451;28;20291;-81
2023/01/24 02:10:01;;;;;;;5.33;4.93;;;;;;;;;;6262143;28;20669;-81
2023/01/24 02:13:07;;;;;;;5.20;4.80;;;;;;;;;;6277950;28;20227;-82
2023/01/24 02:16:13;;;;;;;5.03;4.73;;;;;;;;;;6265688;28;20474;-81
2023/01/24 02:19:40;;;;;;;5.37;4.97;;;;;;;;;;6264784;28;20306;-82
2023/01/24 02:22:53;;;;;;;5.27;4.77;;;;;;;;;;6263317;28;20287;-77
2023/01/24 02:26:06;;;;;;;5.27;4.87;;;;;;;;;;6244198;28;20322;-82
2023/01/24 02:29:15;;;;;;;5.13;4.73;;;;;;;;;;6262207;28;20303;-82
2023/01/24 02:32:20;;;;;;;5.33;4.93;;;;;;;;;;6262394;28;20294;-82
2023/01/24 02:35:28;;;;;;;5.20;4.80;;;;;;;;;;6261099;28;20586;-82
2023/01/24 02:38:36;;;;;;;5.80;5.33;;;;;;;;;;6244640;28;20304;-82
2023/01/24 02:41:45;;;;;;;5.67;5.20;;;;;;;;;;6262270;28;20311;-81
2023/01/24 02:44:58;;;;;;;5.03;4.63;;;;;;;;;;6261862;28;20303;-82
2023/01/24 02:48:05;;;;;;;5.53;5.13;;;;;;;;;;6244120;28;20307;-82
2023/01/24 02:54:35;;;;;;;5.40;5.00;;;;;;;;;;6243605;28;20292;-82
2023/01/24 03:01:04;;;;;;;5.57;5.03;;;;;;;;;;6260710;28;20302;-83
2023/01/24 03:04:12;;;;;;;8.70;5.47;;;;;;;;;;6260316;28;20321;-84
2023/01/24 03:07:17;;;;;;;7.30;5.43;;;;;;;;;;6244317;28;20311;-83
2023/01/24 03:10:29;;;;;;;6.17;5.63;;;;;;;;;;6243652;28;20294;-83
2023/01/24 03:40:44;;;;;;;5.40;4.90;;;;;;;;;;6242187;28;20489;-83
2023/01/24 03:43:49;;;;;;;5.57;5.17;;;;;;;;;;6242241;28;20306;-83
2023/01/24 03:46:56;;;;;;;8.97;5.37;;;;;;;;;;6243833;28;20267;-83
2023/01/24 03:53:26;;;;;;;5.57;5.17;;;;;;;;;;6260003;28;20300;-83
2023/01/24 03:56:31;;;;;;;5.63;5.23;;;;;;;;;;6243174;28;20292;-83
2023/01/24 03:59:38;;;;;;;5.77;5.30;;;;;;;;;;6242649;28;20567;-83
2023/01/24 04:02:44;;;;;;;5.83;5.33;;;;;;;;;;6225441;28;20303;-83
2023/01/24 04:05:59;;;;;;;6.57;5.83;;;;;;;;;;6241936;28;20295;-84
2023/01/24 04:09:05;;;;;;;6.20;5.63;;;;;;;;;;6226849;28;20459;-83
2023/01/24 04:12:14;;;;;;;6.00;5.40;;;;;;;;;;6260871;28;20295;-82
2023/01/24 04:15:21;;;;;;;6.80;5.60;;;;;;;;;;6242873;28;20298;-83
2023/01/24 04:18:36;;;;;;;6.23;5.73;;;;;;;;;;6243018;28;20375;-82
2023/01/24 04:21:41;;;;;;;6.63;5.40;;;;;;;;;;6243973;28;20439;-82
2023/01/24 04:24:48;;;;;;;6.63;6.03;;;;;;;;;;6243369;28;20296;-82
2023/01/24 04:27:54;;;;;;;7.43;5.90;;;;;;;;;;6260819;28;20299;-83
2023/01/24 04:31:04;;;;;;;6.10;5.50;;;;;;;;;;6243212;28;20295;-83
2023/01/24 04:34:34;;;;;;;8.90;6.13;;;;;;;;;;6254658;28;20304;-83
2023/01/24 04:37:40;;;;;;;6.40;5.80;;;;;;;;;;6243240;28;20289;-83
2023/01/24 04:40:47;;;;;;;8.77;5.63;;;;;;;;;;6241580;28;20295;-82
2023/01/24 04:43:53;;;;;;;8.17;5.87;;;;;;;;;;6242335;28;20307;-82
2023/01/24 04:46:58;;;;;;;6.90;6.20;;;;;;;;;;6243217;28;20568;-84
2023/01/24 04:50:06;;;;;;;7.00;6.10;;;;;;;;;;6246694;28;20298;-84
2023/01/24 04:53:13;;;;;;;6.60;5.60;;;;;;;;;;6247219;28;20291;-84
2023/01/24 04:56:19;;;;;;;8.73;5.97;;;;;;;;;;6246757;28;20299;-83
2023/01/24 04:59:24;;;;;;;9.53;6.07;;;;;;;;;;6263721;28;20298;-83
2023/01/24 05:02:29;;;;;;;6.67;6.07;;;;;;;;;;6264170;28;20602;-82
2023/01/24 05:05:36;;;;;;;8.50;5.97;;;;;;;;;;6246874;28;20296;-84
2023/01/24 05:08:41;;;;;;;6.60;5.70;;;;;;;;;;6255557;28;20288;-83
2023/01/24 05:11:46;;;;;;;5.87;5.37;;;;;;;;;;6264164;28;20539;-82
2023/01/24 05:14:52;;;;;;;8.53;6.07;;;;;;;;;;6263921;28;20280;-82
2023/01/24 05:17:57;;;;;;;7.40;5.87;;;;;;;;;;6264015;28;20297;-82
2023/01/24 05:21:09;;;;;;;10.10;7.30;;;;;;;;;;6281302;28;20282;-82
2023/01/24 05:24:15;;;;;;;6.60;6.00;;;;;;;;;;6264243;28;20271;-82
2023/01/24 05:27:22;;;;;;;8.93;5.90;;;;;;;;;;6264169;28;20253;-82
2023/01/24 05:30:34;;;;;;;12.33;6.77;;;;;;;;;;6258290;28;20304;-84
2023/01/24 05:33:48;;;;;;;8.37;6.50;;;;;;;;;;6255588;28;20305;-82
2023/01/24 05:36:55;;;;;;;9.17;6.97;;;;;;;;;;6258360;28;20294;-82
2023/01/24 05:40:01;;;;;;;7.00;6.30;;;;;;;;;;6241577;28;20298;-83
2023/01/24 05:43:07;;;;;;;13.40;7.37;;;;;;;;;;6254741;28;20299;-84
2023/01/24 05:46:14;;;;;;;10.87;6.80;;;;;;;;;;6265855;28;20284;-83
2023/01/24 05:49:26;;;;;;;8.27;6.13;;;;;;;;;;6248033;28;20323;-82
2023/01/24 05:52:34;;;;;;;9.00;6.30;;;;;;;;;;6249069;28;20376;-83
2023/01/24 05:55:41;;;;;;;10.37;7.07;;;;;;;;;;6243654;28;20316;-83
2023/01/24 05:58:47;;;;;;;9.00;6.87;;;;;;;;;;6243803;28;20398;-82
2023/01/24 06:01:55;;;;;;;10.50;7.43;;;;;;;;;;6245888;28;20274;-83
2023/01/24 06:05:00;;;;;;;12.40;7.50;;;;;;;;;;6262223;28;20310;-82
2023/01/24 06:08:08;;;;;;;10.73;7.40;;;;;;;;;;6245359;28;20294;-82
2023/01/24 06:11:16;;;;;;;9.67;7.07;;;;;;;;;;6245918;28;20390;-83
2023/01/24 06:14:22;;;;;;;10.53;6.90;;;;;;;;;;6245217;28;20293;-83
2023/01/24 06:17:28;;;;;;;14.50;7.50;;;;;;;;;;6262052;28;20280;-83
2023/01/24 06:20:33;;;;;;;12.80;7.83;;;;;;;;;;6244742;28;20299;-82
2023/01/24 06:23:40;;;;;;;13.70;7.60;;;;;;;;;;6261182;28;20300;-83
2023/01/24 06:26:46;;;;;;;12.33;7.77;;;;;;;;;;6262008;28;20287;-81
2023/01/24 06:29:52;;;;;;;12.27;7.30;;;;;;;;;;6262529;28;20295;-84
2023/01/24 06:33:16;;;;;;;9.07;7.13;;;;;;;;;;6262150;28;20303;-82
2023/01/24 06:36:32;;;;;;;12.67;7.17;;;;;;;;;;6262625;28;20297;-77
2023/01/24 06:39:40;;;;;;;11.90;7.33;;;;;;;;;;6261910;28;20296;-79
2023/01/24 06:42:46;;;;;;;14.03;7.83;;;;;;;;;;6264484;28;20295;-79
2023/01/24 06:45:51;;;;;;;11.30;7.37;;;;;;;;;;6264236;28;20296;-80
2023/01/24 06:48:56;;;;;;;13.73;7.73;;;;;;;;;;6263225;28;20289;-80
2023/01/24 06:52:02;;;;;;;12.07;7.50;;;;;;;;;;6244403;28;20299;-79
2023/01/24 06:55:12;;;;;;;13.93;7.77;;;;;;;;;;6261555;28;20304;-81
2023/01/24 06:58:17;;;;;;;16.73;7.87;;;;;;;;;;6261340;28;20295;-80
2023/01/24 07:01:22;;;;;;;14.33;7.23;;;;;;;;;;6261986;28;20292;-78
2023/01/24 07:04:28;;;;;;;13.23;7.43;;;;;;;;;;6238657;28;20324;-78
2023/01/24 07:07:33;;;;;;;11.27;6.97;;;;;;;;;;6237347;28;20295;-78
2023/01/24 07:10:39;;;;;;;13.73;7.70;;;;;;;;;;6229071;28;20297;-81
2023/01/24 07:13:45;;;;;;;13.57;7.97;;;;;;;;;;6212470;28;20609;-81
2023/01/24 07:16:50;;;;;;;8.63;7.13;;;;;;;;;;6211167;28;20269;-81
2023/01/24 07:19:56;;;;;;;13.07;7.30;;;;;;;;;;6212345;28;20296;-80
2023/01/24 07:23:02;;;;;;;11.03;7.60;;;;;;;;;;6210761;28;20276;-80
2023/01/24 07:26:12;;;;;;;15.20;7.63;;;;;;;;;;6212217;28;20297;-81
2023/01/24 07:29:17;;;;;;;14.30;7.73;;;;;;;;;;6211696;28;20292;-81
2023/01/24 07:32:22;;;;;;;13.13;7.67;;;;;;;;;;6210627;28;20289;-81
2023/01/24 07:35:28;;;;;;;11.97;7.07;;;;;;;;;;6211618;28;20382;-81
2023/01/24 07:38:33;;;;;;;14.30;7.37;;;;;;;;;;6211412;28;20301;-81
2023/01/24 07:41:40;;;;;;;10.80;6.47;;;;;;;;;;6212644;28;20293;-81
2023/01/24 07:44:45;;;;;;;9.57;6.47;;;;;;;;;;6224413;28;20490;-79
2023/01/24 07:47:51;;;;;;;10.77;7.20;;;;;;;;;;6227358;28;20241;-81
2023/01/24 07:51:00;;;;;;;12.80;6.40;;;;;;;;;;6221254;28;20297;-80
2023/01/24 07:54:05;;;;;;;11.10;6.57;;;;;;;;;;6212670;28;20627;-80
2023/01/24 07:57:15;;;;;;;10.97;6.33;;;;;;;;;;6213699;28;20289;-81
2023/01/24 08:00:21;;;;;;;10.10;6.50;;;;;;;;;;6211619;28;20303;-80
2023/01/24 08:03:27;;;;;;;12.40;6.77;;;;;;;;;;6238793;28;20293;-84
2023/01/24 08:06:32;;;;;;;10.33;7.13;;;;;;;;;;6260786;28;20296;-84
2023/01/24 08:09:37;;;;;;;13.43;7.10;;;;;;;;;;6259933;28;20616;-84
2023/01/24 08:12:44;;;;;;;11.90;6.70;;;;;;;;;;6260478;28;20289;-81
2023/01/24 08:15:50;;;;;;;9.23;6.17;;;;;;;;;;6259913;28;20300;-80
2023/01/24 08:18:55;;;;;;;7.80;6.33;;;;;;;;;;6258340;28;20295;-83
2023/01/24 08:22:00;;;;;;;13.97;6.70;;;;;;;;;;6263804;28;20305;-83
2023/01/24 08:25:06;;;;;;;10.10;6.53;;;;;;;;;;6265278;28;20305;-83
2023/01/24 08:28:14;;;;;;;6.87;6.17;;;;;;;;;;6264755;28;20400;-83
2023/01/24 08:31:19;;;;;;;12.87;6.80;;;;;;;;;;6248573;28;20296;-82
2023/01/24 08:34:25;;;;;;;12.43;6.27;;;;;;;;;;6247881;28;20538;-80
2023/01/24 08:37:30;;;;;;;8.93;6.07;;;;;;;;;;6265642;28;20295;-80
2023/01/24 08:40:35;;;;;;;11.63;6.10;;;;;;;;;;6265383;28;20301;-81
2023/01/24 08:43:55;;;;;;;9.33;6.13;;;;;;;;;;6263817;28;20296;-81
2023/01/24 08:47:00;;;;;;;9.37;6.00;;;;;;;;;;6265534;28;20287;-80
2023/01/24 08:50:06;;;;;;;9.03;5.33;;;;;;;;;;6264261;28;20303;-79
2023/01/24 08:53:14;;;;;;;9.07;5.93;;;;;;;;;;6264439;28;20297;-80
2023/01/24 08:56:19;;;;;;;7.27;5.37;;;;;;;;;;6264924;28;20291;-79
2023/01/24 08:59:26;;;;;;;11.07;5.90;;;;;;;;;;6242302;28;20290;-80
2023/01/24 09:02:34;;;;;;;12.30;5.57;;;;;;;;;;6240184;28;20297;-80
2023/01/24 09:05:40;;;;;;;12.33;5.00;;;;;;;;;;6222391;28;20300;-79
2023/01/24 09:08:45;;;;;;;5.30;4.80;;;;;;;;;;6239162;28;20296;-80
2023/01/24 09:11:52;;;;;;;8.50;5.70;;;;;;;;;;6257307;28;20293;-81
2023/01/24 09:14:58;;;;;;;7.63;5.10;;;;;;;;;;6264139;28;20297;-80
2023/01/24 09:18:04;;;;;;;7.10;5.07;;;;;;;;;;6263513;28;20291;-80
2023/01/24 09:21:10;;;;;;;11.23;5.47;;;;;;;;;;6263625;28;20314;-81
2023/01/24 09:24:16;;;;;;;13.00;5.43;;;;;;;;;;6263161;28;20545;-80
2023/01/24 09:27:21;;;;;;;7.00;4.63;;;;;;;;;;6264039;28;20291;-80
2023/01/24 09:30:27;;;;;;;10.53;4.90;;;;;;;;;;6263368;28;20303;-79
2023/01/24 09:33:33;;;;;;;5.27;4.77;;;;;;;;;;6245528;28;20287;-80
2023/01/24 09:36:39;;;;;;;12.97;5.00;;;;;;;;;;6246088;28;20296;-80
2023/01/24 09:39:44;;;;;;;5.10;4.70;;;;;;;;;;6244956;28;20450;-79
2023/01/24 09:42:57;;;;;;;5.17;4.77;;;;;;;;;;6263469;28;20288;-79
2023/01/24 09:46:08;;;;;;;8.33;5.23;;;;;;;;;;6245506;28;20298;-80
2023/01/24 09:49:18;;;;;;;6.27;5.10;;;;;;;;;;6245561;28;20291;-80
2023/01/24 09:52:29;;;;;;;4.83;4.37;;;;;;;;;;6263745;28;20304;-80
2023/01/24 09:55:37;;;;;;;4.77;4.37;;;;;;;;;;6262811;28;20299;-80
2023/01/24 09:58:44;;;;;;;5.17;4.67;;;;;;;;;;6263275;28;20304;-81
2023/01/24 10:01:52;;;;;;;6.23;4.30;;;;;;;;;;6261815;28;20268;-79
2023/01/24 10:04:57;;;;;;;7.73;4.37;;;;;;;;;;6244910;28;20303;-80
2023/01/24 10:08:16;;;;;;;5.80;4.57;;;;;;;;;;6261848;28;20275;-80
2023/01/24 10:11:28;;;;;;;6.43;4.40;;;;;;;;;;6262847;28;20291;-80
2023/01/24 10:14:46;;;;;;;8.00;4.73;;;;;;;;;;6262528;28;20295;-80
2023/01/24 10:18:07;;;;;;;7.67;4.53;;;;;;;;;;6245795;28;20301;-78
2023/01/24 10:21:39;;;;;;;11.13;5.00;;;;;;;;;;6261876;28;20295;-80
2023/01/24 10:24:52;;;;;;;8.50;4.77;;;;;;;;;;6242885;28;20349;-81
2023/01/24 10:28:01;;;;;;;6.50;5.13;;;;;;;;;;6262624;28;20296;-80
2023/01/24 10:31:10;;;;;;;5.30;4.33;;;;;;;;;;6262393;28;20306;-81
2023/01/24 10:34:19;;;;;;;6.03;4.50;;;;;;;;;;6244301;28;20586;-81
2023/01/24 10:37:26;;;;;;;10.47;5.40;;;;;;;;;;6261972;28;20310;-78
2023/01/24 10:40:31;;;;;;;5.37;4.87;;;;;;;;;;6261511;28;20299;-75
2023/01/24 10:43:38;;;;;;;8.67;5.03;;;;;;;;;;6261106;28;20453;-76
2023/01/24 10:47:18;;;;;;;6.43;4.97;;;;;;;;;;6261561;28;20299;-77
2023/01/24 10:50:25;;;;;;;10.00;5.00;;;;;;;;;;6246774;28;20294;-80
2023/01/24 10:53:30;;;;;;;5.47;4.90;;;;;;;;;;6261632;28;20292;-78
2023/01/24 10:56:40;;;;;;;5.03;4.60;;;;;;;;;;6261656;28;20302;-78
2023/01/24 10:59:45;;;;;;;9.37;4.50;;;;;;;;;;6243668;28;20297;-78
2023/01/24 11:02:53;;;;;;;6.90;4.90;;;;;;;;;;6261035;28;20478;-78
2023/01/24 11:06:00;;;;;;;7.20;5.07;;;;;;;;;;6260944;28;20302;-77
2023/01/24 11:09:11;;;;;;;9.57;4.60;;;;;;;;;;6260853;28;20296;-78
2023/01/24 11:12:18;;;;;;;9.80;4.33;;;;;;;;;;6243616;28;20294;-79
2023/01/24 11:15:26;;;;;;;6.47;4.77;;;;;;;;;;6260149;28;20303;-79
2023/01/24 11:18:33;;;;;;;7.23;3.97;;;;;;;;;;6260858;28;20290;-79
2023/01/24 11:21:52;;;;;;;4.53;3.47;;;;;;;;;;6261552;28;20298;-80
2023/01/24 11:24:59;;;;;;;11.43;4.23;;;;;;;;;;6260910;28;20590;-79
2023/01/24 11:28:04;;;;;;;6.20;4.10;;;;;;;;;;6260502;28;20293;-79
2023/01/24 11:31:22;;;;;;;4.30;3.77;;;;;;;;;;6261057;28;20291;-79
2023/01/24 11:34:45;;;;;;;13.83;3.87;;;;;;;;;;6243285;28;20412;-80
2023/01/24 11:38:14;;;;;;;5.47;4.30;;;;;;;;;;6259777;28;20295;-80
2023/01/24 11:41:39;;;;;;;4.60;4.17;;;;;;;;;;6258839;28;20341;-80
2023/01/24 11:45:11;;;;;;;4.47;4.07;;;;;;;;;;6263540;28;20461;-78
2023/01/24 11:48:29;;;;;;;6.30;4.47;;;;;;;;;;6259603;28;20290;-78
2023/01/24 11:51:43;;;;;;;8.90;4.80;;;;;;;;;;6261821;28;20290;-79
2023/01/24 11:54:56;;;;;;;5.27;4.80;;;;;;;;;;6260727;28;20579;-80
2023/01/24 11:58:15;;;;;;;7.47;3.93;;;;;;;;;;6259716;28;20298;-81
2023/01/24 12:01:26;;;;;;;11.87;4.27;;;;;;;;;;6260679;28;20298;-80
2023/01/24 12:04:59;;;;;;;5.57;3.97;;;;;;;;;;6259966;28;20300;-81
2023/01/24 12:08:23;;;;;;;7.13;3.60;;;;;;;;;;6258524;28;20570;-80
2023/01/24 12:11:33;;;;;;;3.30;3.10;;;;;;;;;;6260795;28;20307;-79
2023/01/24 12:14:59;;;;;;;4.80;3.20;;;;;;;;;;6259250;28;20466;-79
2023/01/24 12:18:24;;;;;;;6.00;3.53;;;;;;;;;;6259402;28;20591;-79
2023/01/24 12:21:29;;;;;;;6.70;3.63;;;;;;;;;;6259758;28;20300;-79
2023/01/24 12:24:38;;;;;;;3.70;3.43;;;;;;;;;;6242036;28;20307;-79
2023/01/24 12:27:46;;;;;;;5.83;3.53;;;;;;;;;;6259935;28;20321;-79
2023/01/24 12:30:58;;;;;;;6.30;3.27;;;;;;;;;;6259634;28;20486;-78
2023/01/24 12:34:07;;;;;;;3.83;3.47;;;;;;;;;;6259523;28;20402;-78
2023/01/24 12:37:20;;;;;;;6.73;3.30;;;;;;;;;;6259409;28;20303;-79
2023/01/24 12:40:36;;;;;;;5.17;3.00;;;;;;;;;;6259487;28;20348;-78
2023/01/24 12:43:54;;;;;;;3.73;3.10;;;;;;;;;;6259455;28;20295;-79
2023/01/24 12:47:31;;;;;;;6.17;3.00;;;;;;;;;;6258773;28;20278;-80
2023/01/24 12:50:44;;;;;;;3.03;2.80;;;;;;;;;;6242392;28;20304;-80
2023/01/24 12:53:59;;;;;;;2.70;2.60;;;;;;;;;;6242890;28;20510;-79
2023/01/24 12:57:07;;;;;;;3.37;3.17;;;;;;;;;;6242538;28;20296;-78
2023/01/24 13:00:21;;;;;;;3.77;3.40;;;;;;;;;;6243186;28;20304;-80
2023/01/24 13:04:00;;;;;;;3.37;3.07;;;;;;;;;;6258730;28;20295;-79
2023/01/24 13:07:13;;;;;;;3.27;3.00;;;;;;;;;;6236828;28;20579;-80
2023/01/24 13:10:22;;;;;;;6.67;3.27;;;;;;;;;;6264001;28;20315;-80
2023/01/24 13:13:32;;;;;;;5.27;3.10;;;;;;;;;;6263910;28;20299;-79
2023/01/24 13:17:03;;;;;;;3.50;3.30;;;;;;;;;;6266350;28;20304;-78
2023/01/24 13:20:30;;;;;;;8.13;3.20;;;;;;;;;;6278778;28;20241;-79
2023/01/24 13:24:15;;;;;;;4.23;3.07;;;;;;;;;;6279298;28;20291;-78
2023/01/24 13:27:36;;;;;;;3.90;3.37;;;;;;;;;;6228806;28;20304;-75
2023/01/24 13:30:48;;;;;;;6.60;3.03;;;;;;;;;;6263799;28;20293;-76
2023/01/24 13:33:57;;;;;;;3.73;2.80;;;;;;;;;;6262930;28;20621;-79
2023/01/24 13:37:03;;;;;;;6.17;3.30;;;;;;;;;;6263171;28;20307;-77
2023/01/24 13:40:26;;;;;;;3.97;3.30;;;;;;;;;;6245565;28;20299;-80
2023/01/24 13:43:58;;;;;;;3.17;2.73;;;;;;;;;;6262610;28;20300;-78
2023/01/24 13:47:20;;;;;;;5.53;3.20;;;;;;;;;;6262883;28;20313;-80
2023/01/24 13:50:28;;;;;;;2.80;2.60;;;;;;;;;;6262626;28;20295;-78
2023/01/24 13:53:58;;;;;;;4.60;2.90;;;;;;;;;;6262913;28;20290;-79
2023/01/24 13:57:21;;;;;;;2.77;2.67;;;;;;;;;;6263458;28;20299;-79
2023/01/24 14:00:27;;;;;;;5.30;2.93;;;;;;;;;;6263066;28;20299;-79
2023/01/24 14:03:38;;;;;;;5.30;3.07;;;;;;;;;;6262243;28;20299;-80
2023/01/24 14:06:46;;;;;;;4.60;2.93;;;;;;;;;;6263279;28;20489;-81
2023/01/24 14:09:58;;;;;;;3.03;2.83;;;;;;;;;;6262399;28;20364;-76
2023/01/24 14:13:04;;;;;;;3.27;2.97;;;;;;;;;;6262075;28;20294;-78
2023/01/24 14:16:11;;;;;;;6.37;4.10;;;;;;;;;;6262252;28;20299;-78
2023/01/24 14:19:20;;;;;;;6.87;3.23;;;;;;;;;;6262013;28;20463;-81
2023/01/24 14:22:34;;;;;;;6.07;2.90;;;;;;;;;;6245467;28;20290;-82
2023/01/24 14:25:50;;;;;;;5.70;3.03;;;;;;;;;;6262425;28;20610;-83
2023/01/24 14:28:59;;;;;;;4.27;3.07;;;;;;;;;;6261561;28;20564;-80
2023/01/24 14:32:07;;;;;;;5.37;2.80;;;;;;;;;;6262722;28;20371;-80
2023/01/24 14:35:19;;;;;;;7.83;3.00;;;;;;;;;;6263308;28;20291;-82
2023/01/24 14:38:26;;;;;;;4.17;3.10;;;;;;;;;;6266133;28;20294;-82
2023/01/24 14:41:31;;;;;;;2.77;2.67;;;;;;;;;;6248362;28;20300;-83
2023/01/24 14:44:39;;;;;;;3.80;3.03;;;;;;;;;;6262158;28;20385;-83
2023/01/24 14:47:48;;;;;;;8.13;3.10;;;;;;;;;;6261624;28;20295;-83
2023/01/24 14:51:04;;;;;;;7.07;2.70;;;;;;;;;;6262103;28;20294;-83
2023/01/24 14:54:22;;;;;;;3.80;3.00;;;;;;;;;;6261880;28;20295;-82
2023/01/24 14:57:29;;;;;;;7.57;3.20;;;;;;;;;;6262075;28;20296;-81
2023/01/24 15:00:34;;;;;;;3.27;2.90;;;;;;;;;;6262323;28;20471;-81
2023/01/24 15:03:39;;;;;;;7.40;3.20;;;;;;;;;;6262149;28;20596;-81
2023/01/24 15:06:47;;;;;;;3.50;3.20;;;;;;;;;;6263181;28;20291;-80
2023/01/24 15:09:54;;;;;;;3.13;2.83;;;;;;;;;;6262441;28;20475;-81
2023/01/24 15:13:01;;;;;;;4.27;3.20;;;;;;;;;;6262260;28;20298;-80
2023/01/24 15:16:07;;;;;;;6.13;3.10;;;;;;;;;;6262593;28;20316;-80
2023/01/24 15:19:17;;;;;;;8.03;3.10;;;;;;;;;;6261822;28;20569;-80
2023/01/24 15:22:23;;;;;;;6.60;3.00;;;;;;;;;;6262749;28;20401;-81
2023/01/24 15:25:32;;;;;;;3.00;2.67;;;;;;;;;;6260878;28;20300;-79
2023/01/24 15:28:41;;;;;;;10.97;3.80;;;;;;;;;;6260762;28;20298;-80
2023/01/24 15:31:50;;;;;;;3.07;2.77;;;;;;;;;;6259848;28;20271;-79
2023/01/24 15:35:14;;;;;;;3.07;2.77;;;;;;;;;;6260290;28;20299;-80
2023/01/24 15:38:25;;;;;;;4.70;2.67;;;;;;;;;;6258903;28;20300;-80
2023/01/24 15:44:54;;;;;;;3.10;2.90;;;;;;;;;;6259713;28;20303;-81
2023/01/24 15:48:13;;;;;;;4.23;3.10;;;;;;;;;;6260856;28;20303;-80
2023/01/24 15:51:28;;;;;;;4.10;2.60;;;;;;;;;;6260884;28;20299;-81
2023/01/24 15:54:34;;;;;;;3.50;3.17;;;;;;;;;;6260333;28;20315;-82
2023/01/24 15:57:41;;;;;;;3.33;3.13;;;;;;;;;;6260488;28;20666;-80
2023/01/24 16:00:53;;;;;;;4.03;2.60;;;;;;;;;;6259949;28;20293;-79
2023/01/24 16:04:00;;;;;;;2.90;2.70;;;;;;;;;;6259633;28;20311;-80
2023/01/24 16:07:05;;;;;;;5.57;3.03;;;;;;;;;;6259859;28;20298;-79
2023/01/24 16:10:13;;;;;;;3.40;3.20;;;;;;;;;;6259518;28;20298;-80
2023/01/24 16:13:29;;;;;;;3.97;2.70;;;;;;;;;;6259537;28;20300;-80
2023/01/24 16:16:35;;;;;;;3.37;3.10;;;;;;;;;;6260376;28;20575;-81
2023/01/24 16:19:40;;;;;;;2.70;2.50;;;;;;;;;;6242054;28;20301;-80
2023/01/24 16:22:46;;;;;;;4.90;3.10;;;;;;;;;;6241662;28;20279;-79
2023/01/24 16:25:53;;;;;;;3.77;3.00;;;;;;;;;;6259668;28;20291;-80
2023/01/24 16:28:59;;;;;;;3.27;3.10;;;;;;;;;;6259383;28;20611;-80
2023/01/24 16:32:08;;;;;;;5.33;3.17;;;;;;;;;;6260255;28;20283;-81
2023/01/24 16:35:14;;;;;;;4.20;3.30;;;;;;;;;;6259449;28;20296;-81
2023/01/24 16:38:19;;;;;;;3.33;3.03;;;;;;;;;;6259625;28;20312;-82
2023/01/24 16:41:25;;;;;;;7.03;3.50;;;;;;;;;;6260116;28;20297;-81
2023/01/24 16:44:34;;;;;;;3.93;3.63;;;;;;;;;;6263110;28;20435;-80
2023/01/24 16:47:40;;;;;;;8.20;3.80;;;;;;;;;;6265345;28;20459;-81
2023/01/24 16:50:46;;;;;;;7.60;4.30;;;;;;;;;;6264457;28;20299;-80
2023/01/24 16:53:55;;;;;;;4.70;3.70;;;;;;;;;;6263930;28;20299;-80
2023/01/24 16:57:00;;;;;;;7.60;4.03;;;;;;;;;;6246923;28;20298;-80
2023/01/24 17:00:11;;;;;;;4.97;3.97;;;;;;;;;;6264138;28;20487;-82
2023/01/24 17:03:17;;;;;;;4.53;3.60;;;;;;;;;;6263798;28;20322;-81
2023/01/24 17:06:22;;;;;;;3.83;3.53;;;;;;;;;;6264426;28;20303;-80
2023/01/24 17:09:28;;;;;;;9.63;4.00;;;;;;;;;;6262586;28;20295;-81
2023/01/24 17:12:33;;;;;;;5.90;4.43;;;;;;;;;;6264041;28;20303;-81
2023/01/24 17:15:41;;;;;;;6.73;4.23;;;;;;;;;;6263491;28;20303;-80
2023/01/24 17:18:46;;;;;;;7.03;4.33;;;;;;;;;;6263081;28;20299;-80
2023/01/24 17:21:52;;;;;;;6.23;3.80;;;;;;;;;;6263701;28;20416;-79
2023/01/24 17:24:57;;;;;;;3.80;3.50;;;;;;;;;;6262363;28;20549;-80
2023/01/24 17:28:02;;;;;;;4.43;4.00;;;;;;;;;;6262534;28;20480;-80
2023/01/24 17:31:13;;;;;;;4.73;3.80;;;;;;;;;;6263557;28;20292;-82
2023/01/24 17:34:21;;;;;;;5.87;4.10;;;;;;;;;;6246081;28;20301;-81
2023/01/24 17:37:27;;;;;;;8.90;3.87;;;;;;;;;;6263711;28;20298;-80
2023/01/24 17:40:32;;;;;;;4.27;3.97;;;;;;;;;;6263003;28;20297;-80
2023/01/24 17:43:37;;;;;;;7.00;3.70;;;;;;;;;;6262948;28;20297;-80
2023/01/24 17:46:58;;;;;;;4.53;3.70;;;;;;;;;;6261425;28;20273;-80
2023/01/24 17:50:03;;;;;;;5.40;4.10;;;;;;;;;;6261829;28;20301;-79
2023/01/24 17:53:11;;;;;;;6.43;3.60;;;;;;;;;;6245053;28;20293;-80
2023/01/24 17:56:17;;;;;;;3.70;3.47;;;;;;;;;;6230040;28;20296;-80
2023/01/24 17:59:22;;;;;;;3.93;3.67;;;;;;;;;;6264883;28;20295;-80
2023/01/24 18:02:29;;;;;;;4.23;3.83;;;;;;;;;;6277115;28;20257;-81
2023/01/24 18:05:34;;;;;;;4.10;3.70;;;;;;;;;;6279170;28;20273;-80
2023/01/24 18:08:39;;;;;;;3.77;3.40;;;;;;;;;;6279412;28;20251;-80
2023/01/24 18:11:45;;;;;;;3.77;3.47;;;;;;;;;;6279879;28;20296;-78
2023/01/24 18:14:50;;;;;;;3.80;3.40;;;;;;;;;;6274774;28;20296;-81
2023/01/24 18:17:58;;;;;;;3.27;2.97;;;;;;;;;;6267216;28;20304;-81
2023/01/24 18:21:09;;;;;;;3.50;3.20;;;;;;;;;;6264531;28;20307;-80
2023/01/24 18:24:14;;;;;;;4.83;3.33;;;;;;;;;;6264492;28;20318;-82
2023/01/24 18:27:21;;;;;;;3.43;3.13;;;;;;;;;;6242389;28;20299;-81
2023/01/24 18:30:26;;;;;;;3.63;3.33;;;;;;;;;;6237495;28;20307;-82
2023/01/24 18:33:33;;;;;;;3.17;2.97;;;;;;;;;;6250590;28;20289;-80
2023/01/24 18:36:38;;;;;;;3.27;3.07;;;;;;;;;;6261523;28;20300;-80
2023/01/24 18:39:44;;;;;;;3.17;2.97;;;;;;;;;;6260473;28;20303;-80
2023/01/24 18:42:49;;;;;;;3.03;2.93;;;;;;;;;;6261999;28;20299;-81
2023/01/24 18:45:54;;;;;;;3.40;3.10;;;;;;;;;;6261300;28;20299;-81
2023/01/24 18:49:01;;;;;;;3.53;3.33;;;;;;;;;;6261080;28;20292;-80
2023/01/24 18:52:07;;;;;;;3.70;3.37;;;;;;;;;;6274230;28;20291;-80
2023/01/24 18:55:14;;;;;;;5.40;3.50;;;;;;;;;;6278473;28;20255;-79
2023/01/24 18:58:20;;;;;;;4.00;3.80;;;;;;;;;;6276402;28;20255;-82
2023/01/24 19:01:26;;;;;;;3.17;2.97;;;;;;;;;;6262254;28;20295;-80
2023/01/24 19:04:33;;;;;;;3.93;3.70;;;;;;;;;;6261183;28;20306;-80
2023/01/24 19:07:38;;;;;;;3.80;3.50;;;;;;;;;;6261255;28;20315;-81
2023/01/24 19:10:43;;;;;;;4.20;3.90;;;;;;;;;;6243458;28;20618;-79
2023/01/24 19:13:48;;;;;;;3.40;3.20;;;;;;;;;;6260150;28;20471;-82
2023/01/24 19:16:56;;;;;;;5.27;3.60;;;;;;;;;;6244167;28;20275;-79
2023/01/24 19:20:03;;;;;;;3.97;3.67;;;;;;;;;;6260515;28;20327;-81
2023/01/24 19:23:14;;;;;;;3.73;3.50;;;;;;;;;;6260700;28;20551;-80
2023/01/24 19:26:20;;;;;;;5.43;4.10;;;;;;;;;;6261081;28;20290;-81
2023/01/24 19:29:26;;;;;;;4.70;4.30;;;;;;;;;;6260891;28;20288;-80
2023/01/24 19:32:31;;;;;;;4.20;3.90;;;;;;;;;;6261133;28;20556;-81